createdAt,value
2018-11-14T00:00:33.034Z,2.33
2018-11-14T00:03:02.936Z,2.65
2018-11-14T00:05:33.059Z,2.77
2018-11-14T00:08:01.736Z,2.25
2018-11-14T00:10:30.237Z,2.60
2018-11-14T00:12:58.855Z,2.33
2018-11-14T00:15:28.193Z,2.30
2018-11-14T00:17:56.887Z,2.50
2018-11-14T00:20:25.602Z,2.37
2018-11-14T00:22:56.134Z,2.20
2018-11-14T00:25:24.762Z,2.08
2018-11-14T00:27:53.373Z,2.52
2018-11-14T00:30:24.180Z,2.00
2018-11-14T00:32:52.813Z,2.58
2018-11-14T00:35:21.381Z,2.30
2018-11-14T00:37:50.326Z,2.17
2018-11-14T00:40:19.526Z,2.65
2018-11-14T00:42:48.991Z,2.50
2018-11-14T00:45:19.033Z,2.52
2018-11-14T00:47:50.042Z,2.17
2018-11-14T00:50:19.194Z,2.22
2018-11-14T00:52:48.388Z,2.10
2018-11-14T00:55:20.877Z,2.00
2018-11-14T00:57:51.529Z,2.15
2018-11-14T01:00:24.180Z,2.05
2018-11-14T01:02:54.950Z,1.77
2018-11-14T01:05:23.578Z,2.00
2018-11-14T01:07:52.100Z,1.90
2018-11-14T01:10:21.705Z,2.10
2018-11-14T01:12:51.452Z,1.80
2018-11-14T01:15:21.413Z,2.00
2018-11-14T01:17:50.193Z,2.00
2018-11-14T01:20:20.105Z,1.90
2018-11-14T01:22:50.071Z,1.80
2018-11-14T01:25:19.023Z,1.90
2018-11-14T01:27:49.883Z,1.82
2018-11-14T01:30:23.212Z,1.60
2018-11-14T01:32:52.437Z,1.85
2018-11-14T01:35:21.107Z,1.70
2018-11-14T01:37:50.557Z,1.75
2018-11-14T01:40:20.842Z,1.77
2018-11-14T01:42:50.885Z,1.90
2018-11-14T01:45:20.932Z,1.75
2018-11-14T01:47:50.517Z,1.95
2018-11-14T01:50:19.104Z,2.02
2018-11-14T01:52:48.342Z,2.22
2018-11-14T01:55:18.510Z,1.87
2018-11-14T01:57:47.519Z,1.95
2018-11-14T02:00:22.610Z,1.70
2018-11-14T02:02:53.375Z,1.95
2018-11-14T02:05:22.013Z,1.72
2018-11-14T02:07:51.296Z,1.98
2018-11-14T02:10:20.821Z,1.80
2018-11-14T02:12:50.193Z,1.85
2018-11-14T02:15:22.929Z,1.92
2018-11-14T02:17:53.025Z,1.65
2018-11-14T02:20:21.600Z,1.90
2018-11-14T02:22:50.009Z,1.70
2018-11-14T02:25:18.568Z,1.70
2018-11-14T02:27:48.339Z,1.92
2018-11-14T02:30:18.453Z,1.72
2018-11-14T02:32:47.790Z,1.60
2018-11-14T02:35:17.661Z,1.50
2018-11-14T02:37:46.345Z,2.02
2018-11-14T02:40:16.907Z,1.72
2018-11-14T02:42:45.604Z,1.65
2018-11-14T02:45:14.360Z,1.70
2018-11-14T02:47:43.481Z,1.60
2018-11-14T02:50:12.968Z,1.65
2018-11-14T02:52:42.446Z,1.70
2018-11-14T02:55:12.135Z,1.70
2018-11-14T02:57:42.083Z,1.95
2018-11-14T03:00:11.547Z,1.60
2018-11-14T03:02:40.134Z,1.90
2018-11-14T03:05:08.988Z,1.98
2018-11-14T03:07:37.563Z,1.70
2018-11-14T03:10:07.832Z,1.57
2018-11-14T03:12:36.562Z,1.90
2018-11-14T03:15:07.272Z,1.60
2018-11-14T03:17:36.539Z,1.60
2018-11-14T03:20:05.614Z,1.90
2018-11-14T03:22:34.085Z,1.72
2018-11-14T03:25:02.648Z,1.80
2018-11-14T03:27:31.137Z,2.00
2018-11-14T03:29:59.894Z,1.75
2018-11-14T03:32:28.534Z,1.92
2018-11-14T03:34:57.335Z,1.70
2018-11-14T03:37:25.767Z,1.80
2018-11-14T03:39:54.350Z,1.57
2018-11-14T03:42:23.431Z,1.80
2018-11-14T03:44:53.063Z,1.90
2018-11-14T03:47:21.649Z,1.72
2018-11-14T03:49:51.468Z,1.87
2018-11-14T03:52:19.902Z,1.77
2018-11-14T03:54:48.446Z,1.70
2018-11-14T03:57:17.601Z,1.90
2018-11-14T03:59:46.195Z,1.65
2018-11-14T04:02:14.941Z,1.80
2018-11-14T04:04:43.698Z,1.72
2018-11-14T04:07:14.278Z,1.90
2018-11-14T04:09:43.857Z,1.80
2018-11-14T04:12:12.252Z,1.98
2018-11-14T04:14:41.278Z,2.10
2018-11-14T04:17:11.038Z,1.70
2018-11-14T04:19:39.773Z,1.80
2018-11-14T04:22:08.429Z,1.72
2018-11-14T04:24:36.992Z,1.80
2018-11-14T04:27:05.712Z,2.00
2018-11-14T04:29:35.080Z,1.67
2018-11-14T04:32:04.994Z,2.08
2018-11-14T04:34:33.619Z,2.00
2018-11-14T04:37:03.043Z,2.12
2018-11-14T04:39:31.520Z,1.85
2018-11-14T04:42:01.286Z,2.00
2018-11-14T04:44:29.853Z,1.90
2018-11-14T04:46:58.400Z,2.15
2018-11-14T04:49:28.646Z,1.82
2018-11-14T04:51:57.058Z,2.00
2018-11-14T04:54:26.686Z,2.02
2018-11-14T04:56:56.116Z,1.87
2018-11-14T04:59:24.882Z,2.27
2018-11-14T05:01:53.354Z,2.00
2018-11-14T05:04:23.273Z,2.17
2018-11-14T05:06:52.925Z,2.00
2018-11-14T05:09:21.685Z,2.00
2018-11-14T05:11:50.793Z,2.02
2018-11-14T05:14:19.893Z,1.82
2018-11-14T05:16:48.363Z,1.70
2018-11-14T05:19:18.234Z,1.62
2018-11-14T05:21:46.977Z,1.80
2018-11-14T05:24:17.072Z,1.87
2018-11-14T05:26:46.159Z,2.00
2018-11-14T05:29:14.736Z,1.70
2018-11-14T05:31:43.405Z,1.90
2018-11-14T05:34:11.953Z,1.87
2018-11-14T05:36:42.192Z,1.95
2018-11-14T05:39:12.021Z,1.80
2018-11-14T05:41:40.598Z,2.05
2018-11-14T05:44:09.327Z,2.02
2018-11-14T05:46:37.833Z,2.15
2018-11-14T05:49:06.854Z,2.00
2018-11-14T05:51:35.378Z,2.10
2018-11-14T05:54:04.038Z,1.92
2018-11-14T05:56:32.599Z,2.20
2018-11-14T05:59:01.092Z,2.25
2018-11-14T06:01:29.700Z,2.22
2018-11-14T06:03:58.367Z,2.50
2018-11-14T06:06:26.947Z,2.00
2018-11-14T06:08:56.705Z,2.08
2018-11-14T06:11:27.166Z,2.00
2018-11-14T06:13:56.738Z,1.90
2018-11-14T06:16:25.399Z,1.82
2018-11-14T06:18:55.378Z,2.30
2018-11-14T06:21:24.516Z,1.90
2018-11-14T06:24:06.668Z,2.30
2018-11-14T06:26:36.150Z,2.50
2018-11-14T06:29:04.862Z,2.70
2018-11-14T06:31:33.470Z,2.40
2018-11-14T06:34:02.594Z,2.80
2018-11-14T06:36:31.243Z,3.27
2018-11-14T06:39:00.722Z,2.77
2018-11-14T06:41:29.269Z,2.98
2018-11-14T06:43:57.794Z,2.77
2018-11-14T06:46:27.627Z,2.80
2018-11-14T06:48:56.105Z,2.90
2018-11-14T06:51:25.525Z,2.70
2018-11-14T06:53:54.827Z,2.90
2018-11-14T06:56:25.117Z,2.62
2018-11-14T06:58:53.661Z,2.70
2018-11-14T07:01:22.255Z,2.65
2018-11-14T07:03:50.907Z,2.60
2018-11-14T07:06:19.452Z,2.50
2018-11-14T07:08:48.099Z,3.05
2018-11-14T07:11:16.926Z,2.90
2018-11-14T07:13:45.505Z,2.00
2018-11-14T07:16:13.973Z,2.90
2018-11-14T07:18:43.227Z,2.62
2018-11-14T07:21:11.862Z,2.40
2018-11-14T07:23:40.387Z,2.58
2018-11-14T07:26:09.644Z,2.80
2018-11-14T07:28:38.948Z,2.25
2018-11-14T07:31:08.327Z,2.37
2018-11-14T07:33:38.397Z,2.05
2018-11-14T07:36:06.865Z,2.55
2018-11-14T07:38:37.792Z,2.42
2018-11-14T07:41:07.292Z,2.60
2018-11-14T07:43:36.850Z,2.40
2018-11-14T07:46:07.885Z,2.40
2018-11-14T07:48:36.743Z,2.52
2018-11-14T07:51:05.371Z,2.22
2018-11-14T07:53:34.607Z,2.65
2018-11-14T07:56:04.784Z,3.20
2018-11-14T07:58:33.920Z,2.60
2018-11-14T08:01:02.862Z,2.67
2018-11-14T08:03:31.474Z,3.00
2018-11-14T08:06:00.599Z,3.30
2018-11-14T08:08:30.768Z,3.05
2018-11-14T08:11:00.262Z,3.10
2018-11-14T08:13:30.651Z,2.90
2018-11-14T08:16:00.404Z,2.77
2018-11-14T08:18:29.323Z,2.85
2018-11-14T08:21:00.541Z,2.70
2018-11-14T08:23:29.147Z,2.60
2018-11-14T08:25:58.820Z,2.20
2018-11-14T08:28:27.854Z,2.55
2018-11-14T08:30:56.438Z,2.25
2018-11-14T08:33:25.461Z,2.62
2018-11-14T08:35:55.162Z,2.92
2018-11-14T08:38:24.128Z,2.45
2018-11-14T08:40:55.571Z,2.65
2018-11-14T08:43:25.243Z,2.37
2018-11-14T08:45:55.098Z,2.45
2018-11-14T08:48:25.119Z,2.33
2018-11-14T08:50:55.256Z,2.40
2018-11-14T08:53:24.139Z,2.30
2018-11-14T08:55:52.596Z,2.15
2018-11-14T08:58:22.479Z,2.42
2018-11-14T09:00:51.079Z,2.12
2018-11-14T09:03:20.643Z,2.20
2018-11-14T09:05:49.455Z,2.10
2018-11-14T09:08:18.619Z,2.15
2018-11-14T09:10:47.349Z,2.12
2018-11-14T09:13:17.302Z,2.10
2018-11-14T09:15:46.117Z,1.87
2018-11-14T09:18:15.482Z,2.20
2018-11-14T09:20:44.122Z,2.30
2018-11-14T09:23:13.404Z,2.20
2018-11-14T09:25:43.415Z,2.47
2018-11-14T09:28:11.976Z,2.35
2018-11-14T09:30:40.606Z,2.10
2018-11-14T09:33:09.477Z,1.90
2018-11-14T09:35:39.383Z,2.08
2018-11-14T09:38:10.129Z,2.10
2018-11-14T09:40:39.014Z,2.52
2018-11-14T09:43:07.653Z,2.52
2018-11-14T09:45:36.732Z,2.22
2018-11-14T09:48:06.207Z,2.02
2018-11-14T09:50:35.956Z,2.42
2018-11-14T09:53:06.271Z,2.22
2018-11-14T09:55:34.934Z,2.37
2018-11-14T09:58:03.654Z,2.50
2018-11-14T10:00:34.719Z,2.62
2018-11-14T10:03:05.703Z,2.30
2018-11-14T10:05:34.828Z,2.08
2018-11-14T10:08:04.454Z,2.60
2018-11-14T10:10:33.134Z,2.42
2018-11-14T10:13:02.567Z,2.33
2018-11-14T10:15:32.114Z,2.55
2018-11-14T10:18:02.318Z,2.35
2018-11-14T10:20:31.223Z,2.77
2018-11-14T10:22:59.959Z,2.30
2018-11-14T10:25:29.373Z,2.50
2018-11-14T10:27:58.251Z,2.55
2018-11-14T10:30:28.160Z,2.50
2018-11-14T10:32:57.789Z,2.40
2018-11-14T10:35:26.893Z,2.25
2018-11-14T10:37:55.624Z,2.30
2018-11-14T10:40:25.734Z,2.40
2018-11-14T10:42:55.569Z,2.45
2018-11-14T10:45:25.342Z,2.47
2018-11-14T10:47:54.681Z,2.00
2018-11-14T10:50:25.574Z,2.42
2018-11-14T10:52:55.271Z,2.50
2018-11-14T10:56:54.154Z,2.33
2018-11-14T10:59:23.063Z,2.37
2018-11-14T11:01:58.081Z,2.50
2018-11-14T11:04:33.033Z,2.25
2018-11-14T11:07:07.704Z,2.40
2018-11-14T11:09:42.334Z,2.47
2018-11-14T11:12:16.883Z,2.52
2018-11-14T11:14:51.932Z,2.70
2018-11-14T11:17:21.443Z,2.35
2018-11-14T11:19:50.239Z,2.17
2018-11-14T11:22:19.745Z,2.52
2018-11-14T11:24:48.749Z,2.22
2018-11-14T11:27:17.783Z,4.10
2018-11-14T11:29:47.316Z,22.10
2018-11-14T11:32:15.924Z,39.80
2018-11-14T11:34:44.685Z,22.05
2018-11-14T11:37:14.575Z,26.55
2018-11-14T11:39:43.154Z,26.93
2018-11-14T11:42:11.568Z,23.50
2018-11-14T11:44:41.166Z,28.12
2018-11-14T11:47:11.631Z,20.70
2018-11-14T11:49:41.330Z,17.62
2018-11-14T11:52:10.244Z,12.73
2018-11-14T11:54:39.587Z,11.48
2018-11-14T11:57:09.322Z,7.80
2018-11-14T11:59:38.358Z,7.12
2018-11-14T12:02:07.810Z,8.20
2018-11-14T12:04:37.409Z,25.23
2018-11-14T12:07:06.482Z,69.42
2018-11-14T12:09:35.711Z,42.62
2018-11-14T12:12:04.544Z,74.92
2018-11-14T12:14:33.684Z,63.83
2018-11-14T12:17:02.560Z,58.90
2018-11-14T12:19:31.662Z,71.15
2018-11-14T12:22:00.499Z,61.58
2018-11-14T12:24:29.397Z,59.60
2018-11-14T12:26:58.229Z,51.13
2018-11-14T12:29:27.090Z,54.08
2018-11-14T12:31:56.052Z,48.65
2018-11-14T12:34:25.286Z,50.85
2018-11-14T12:36:54.569Z,49.03
2018-11-14T12:39:23.846Z,49.80
2018-11-14T12:41:53.416Z,50.60
2018-11-14T12:44:22.155Z,48.65
2018-11-14T12:46:51.066Z,46.48
2018-11-14T12:49:21.440Z,43.35
2018-11-14T12:51:50.512Z,41.18
2018-11-14T12:54:19.480Z,39.25
2018-11-14T12:56:49.955Z,38.38
2018-11-14T12:59:18.783Z,38.33
2018-11-14T13:01:47.990Z,37.08
2018-11-14T13:04:17.056Z,32.73
2018-11-14T13:06:46.260Z,32.03
2018-11-14T13:09:15.722Z,31.42
2018-11-14T13:11:44.997Z,28.50
2018-11-14T13:14:13.828Z,25.97
2018-11-14T13:16:42.869Z,25.72
2018-11-14T13:19:11.546Z,24.32
2018-11-14T13:21:40.787Z,22.55
2018-11-14T13:24:10.153Z,22.75
2018-11-14T13:26:39.673Z,19.55
2018-11-14T13:29:08.439Z,20.08
2018-11-14T13:31:37.312Z,24.00
2018-11-14T13:34:06.389Z,28.47
2018-11-14T13:36:34.948Z,31.45
2018-11-14T13:39:04.603Z,37.28
2018-11-14T13:41:33.555Z,37.95
2018-11-14T13:44:02.449Z,38.83
2018-11-14T13:46:31.449Z,39.23
2018-11-14T13:49:02.662Z,38.05
2018-11-14T13:51:31.434Z,37.70
2018-11-14T13:54:01.568Z,35.38
2018-11-14T13:56:31.684Z,34.10
2018-11-14T13:59:00.547Z,29.87
2018-11-14T14:01:29.771Z,23.90
2018-11-14T14:03:58.755Z,20.77
2018-11-14T14:06:28.320Z,21.15
2018-11-14T14:08:56.997Z,38.83
2018-11-14T14:11:26.060Z,50.95
2018-11-14T14:14:00.161Z,50.67
2018-11-14T14:16:29.204Z,78.22
2018-11-14T14:18:58.548Z,137.43
2018-11-14T14:21:27.472Z,111.45
2018-11-14T14:23:56.503Z,94.72
2018-11-14T14:26:25.514Z,73.70
2018-11-14T14:28:54.942Z,68.62
2018-11-14T14:31:24.158Z,62.75
2018-11-14T14:33:53.169Z,60.43
2018-11-14T14:36:22.352Z,58.30
2018-11-14T14:38:51.301Z,52.98
2018-11-14T14:41:20.431Z,46.55
2018-11-14T14:43:49.894Z,45.58
2018-11-14T14:46:21.995Z,39.85
2018-11-14T14:48:51.342Z,32.03
2018-11-14T14:51:20.293Z,28.85
2018-11-14T14:53:49.599Z,27.40
2018-11-14T14:56:19.040Z,23.90
2018-11-14T14:58:48.370Z,19.82
2018-11-14T15:01:18.291Z,18.12
2018-11-14T15:03:48.465Z,16.32
2018-11-14T15:06:17.397Z,15.32
2018-11-14T15:08:46.895Z,13.45
2018-11-14T15:11:16.220Z,13.28
2018-11-14T15:13:45.544Z,12.45
2018-11-14T15:16:14.700Z,11.12
2018-11-14T15:18:43.987Z,11.30
2018-11-14T15:21:13.347Z,10.50
2018-11-14T15:23:42.393Z,9.95
2018-11-14T15:26:11.372Z,10.45
2018-11-14T15:28:40.370Z,10.15
2018-11-14T15:31:09.867Z,9.10
2018-11-14T15:33:39.470Z,8.03
2018-11-14T15:36:09.329Z,8.20
2018-11-14T15:38:38.898Z,7.62
2018-11-14T15:41:08.387Z,7.10
2018-11-14T15:43:37.842Z,7.90
2018-11-14T15:46:07.826Z,7.80
2018-11-14T15:48:37.026Z,7.05
2018-11-14T15:51:06.202Z,6.97
2018-11-14T15:53:35.847Z,6.95
2018-11-14T15:56:05.198Z,7.17
2018-11-14T15:58:34.666Z,7.70
2018-11-14T16:01:03.533Z,8.48
2018-11-14T16:03:32.709Z,9.45
2018-11-14T16:06:02.301Z,11.28
2018-11-14T16:08:31.644Z,10.70
2018-11-14T16:11:01.360Z,10.15
2018-11-14T16:13:30.758Z,10.25
2018-11-14T16:16:00.206Z,11.45
2018-11-14T16:18:29.426Z,11.12
2018-11-14T16:20:58.855Z,14.78
2018-11-14T16:23:28.270Z,17.42
2018-11-14T16:25:57.857Z,15.28
2018-11-14T16:28:26.802Z,19.27
2018-11-14T16:30:55.645Z,25.23
2018-11-14T16:33:25.134Z,24.07
2018-11-14T16:35:54.470Z,22.87
2018-11-14T16:38:24.166Z,24.52
2018-11-14T16:40:53.947Z,29.40
2018-11-14T16:43:22.847Z,32.50
2018-11-14T16:45:51.672Z,35.05
2018-11-14T16:48:20.852Z,36.80
2018-11-14T16:50:49.489Z,36.45
2018-11-14T16:53:18.071Z,32.63
2018-11-14T16:55:46.988Z,28.57
2018-11-14T16:58:15.675Z,25.88
2018-11-14T17:00:44.319Z,22.80
2018-11-14T17:03:13.130Z,21.57
2018-11-14T17:05:42.071Z,23.85
2018-11-14T17:08:11.885Z,32.58
2018-11-14T17:10:41.098Z,36.23
2018-11-14T17:13:10.816Z,46.88
2018-11-14T17:15:39.935Z,39.55
2018-11-14T17:18:08.829Z,49.50
2018-11-14T17:20:37.471Z,48.85
2018-11-14T17:23:06.073Z,49.42
2018-11-14T17:25:35.054Z,46.95
2018-11-14T17:28:03.997Z,55.78
2018-11-14T17:30:32.798Z,71.05
2018-11-14T17:33:02.466Z,76.33
2018-11-14T17:35:31.268Z,76.05
2018-11-14T17:38:00.054Z,69.53
2018-11-14T17:40:29.211Z,65.57
2018-11-14T17:42:57.946Z,65.10
2018-11-14T17:45:27.811Z,62.73
2018-11-14T17:47:56.650Z,63.02
2018-11-14T17:50:26.785Z,61.35
2018-11-14T17:52:56.059Z,59.05
2018-11-14T17:55:25.369Z,57.43
2018-11-14T17:57:54.198Z,56.68
2018-11-14T18:00:24.250Z,56.13
2018-11-14T18:02:53.223Z,54.53
2018-11-14T18:05:23.826Z,57.10
2018-11-14T18:07:53.292Z,62.93
2018-11-14T18:10:24.663Z,64.32
2018-11-14T18:12:54.314Z,67.47
2018-11-14T18:15:23.385Z,62.43
2018-11-14T18:17:52.749Z,60.70
2018-11-14T18:20:24.853Z,58.05
2018-11-14T18:22:54.548Z,57.30
2018-11-14T18:25:23.440Z,57.17
2018-11-14T18:27:52.655Z,56.50
2018-11-14T18:30:26.276Z,62.17
2018-11-14T18:32:56.014Z,58.50
2018-11-14T18:35:25.504Z,60.15
2018-11-14T18:37:55.269Z,57.58
2018-11-14T18:40:27.366Z,57.83
2018-11-14T18:42:57.279Z,54.70
2018-11-14T18:45:29.009Z,55.85
2018-11-14T18:47:58.609Z,54.25
2018-11-14T18:50:27.751Z,57.98
2018-11-14T18:52:56.811Z,57.93
2018-11-14T18:55:27.322Z,62.85
2018-11-14T18:57:57.043Z,57.50
2018-11-14T19:00:28.205Z,55.60
2018-11-14T19:02:57.536Z,54.90
2018-11-14T19:05:26.693Z,55.45
2018-11-14T19:07:56.758Z,57.85
2018-11-14T19:10:29.503Z,57.48
2018-11-14T19:12:58.803Z,56.98
2018-11-14T19:15:29.019Z,56.80
2018-11-14T19:17:57.964Z,57.67
2018-11-14T19:20:28.043Z,62.48
2018-11-14T19:22:58.043Z,66.00
2018-11-14T19:25:28.736Z,61.18
2018-11-14T19:27:58.030Z,60.50
2018-11-14T19:30:28.108Z,53.17
2018-11-14T19:32:57.446Z,60.10
2018-11-14T19:35:26.493Z,57.80
2018-11-14T19:37:56.618Z,58.20
2018-11-14T19:40:33.121Z,58.42
2018-11-14T19:43:06.712Z,58.90
2018-11-14T19:45:36.795Z,57.27
2018-11-14T19:48:05.776Z,59.05
2018-11-14T19:50:34.696Z,58.30
2018-11-14T19:53:05.067Z,57.40
2018-11-14T19:55:35.148Z,55.00
2018-11-14T19:58:05.781Z,54.90
2018-11-14T20:00:35.665Z,54.83
2018-11-14T20:03:04.542Z,50.75
2018-11-14T20:05:33.639Z,50.28
2018-11-14T20:08:02.392Z,48.70
2018-11-14T20:10:32.308Z,46.73
2018-11-14T20:13:01.050Z,45.80
2018-11-14T20:15:31.331Z,44.13
2018-11-14T20:18:00.360Z,43.02
2018-11-14T20:20:31.350Z,43.95
2018-11-14T20:23:00.014Z,43.52
2018-11-14T20:25:28.769Z,41.25
2018-11-14T20:27:57.982Z,40.33
2018-11-14T20:30:29.004Z,39.88
2018-11-14T20:32:58.966Z,40.03
2018-11-14T20:35:29.012Z,40.12
2018-11-14T20:37:58.281Z,42.30
2018-11-14T20:40:27.246Z,41.08
2018-11-14T20:42:56.277Z,42.25
2018-11-14T20:45:27.358Z,42.10
2018-11-14T20:47:56.401Z,40.10
2018-11-14T20:50:26.105Z,40.25
2018-11-14T20:52:56.151Z,39.60
2018-11-14T20:55:24.797Z,37.42
2018-11-14T20:57:53.759Z,37.90
2018-11-14T21:00:25.435Z,36.05
2018-11-14T21:02:54.515Z,34.13
2018-11-14T21:05:23.937Z,33.88
2018-11-14T21:07:53.548Z,32.28
2018-11-14T21:10:23.630Z,32.93
2018-11-14T21:12:53.375Z,32.42
2018-11-14T21:15:23.421Z,31.95
2018-11-14T21:17:52.789Z,32.15
2018-11-14T21:20:22.491Z,33.33
2018-11-14T21:22:51.595Z,31.90
2018-11-14T21:25:21.133Z,32.38
2018-11-14T21:27:50.491Z,31.93
2018-11-14T21:30:20.462Z,32.05
2018-11-14T21:32:50.811Z,30.60
2018-11-14T21:35:24.398Z,29.98
2018-11-14T21:37:54.264Z,29.95
2018-11-14T21:40:22.850Z,29.77
2018-11-14T21:42:51.386Z,29.95
2018-11-14T21:45:22.952Z,28.92
2018-11-14T21:47:57.024Z,28.07
2018-11-14T21:50:26.512Z,28.75
2018-11-14T21:52:55.036Z,27.40
2018-11-14T21:55:23.622Z,30.75
2018-11-14T21:57:54.284Z,29.82
2018-11-14T22:00:25.210Z,29.55
2018-11-14T22:02:56.067Z,32.40
2018-11-14T22:05:25.305Z,31.40
2018-11-14T22:07:54.668Z,30.95
2018-11-14T22:10:24.502Z,31.55
2018-11-14T22:12:54.872Z,32.05
2018-11-14T22:15:24.481Z,31.55
2018-11-14T22:17:53.263Z,31.77
2018-11-14T22:20:23.237Z,32.03
2018-11-14T22:22:52.176Z,31.45
2018-11-14T22:25:23.400Z,32.63
2018-11-14T22:27:52.273Z,33.38
2018-11-14T22:30:22.730Z,32.93
2018-11-14T22:32:52.642Z,32.13
2018-11-14T22:35:23.046Z,32.10
2018-11-14T22:37:51.880Z,32.42
2018-11-14T22:40:23.239Z,33.23
2018-11-14T22:42:51.980Z,30.68
2018-11-14T22:45:23.029Z,31.65
2018-11-14T22:47:53.048Z,30.17
2018-11-14T22:50:23.789Z,29.87
2018-11-14T22:52:53.577Z,29.60
2018-11-14T22:55:24.416Z,28.85
2018-11-14T22:57:54.374Z,28.45
2018-11-14T23:00:26.435Z,28.25
2018-11-14T23:02:56.413Z,28.10
2018-11-14T23:05:26.338Z,28.00
2018-11-14T23:07:56.391Z,27.30
2018-11-14T23:10:26.490Z,27.93
2018-11-14T23:12:55.420Z,27.62
2018-11-14T23:15:24.876Z,26.90
2018-11-14T23:17:54.539Z,25.85
2018-11-14T23:20:23.126Z,27.15
2018-11-14T23:22:52.709Z,26.50
2018-11-14T23:25:23.180Z,27.80
2018-11-14T23:27:54.111Z,27.85
2018-11-14T23:30:24.010Z,27.73
2018-11-14T23:32:53.455Z,27.55
2018-11-14T23:35:24.073Z,26.75
2018-11-14T23:37:54.314Z,26.65
2018-11-14T23:40:23.888Z,26.95
2018-11-14T23:42:52.528Z,27.80
2018-11-14T23:45:22.139Z,28.27
2018-11-14T23:47:51.693Z,26.73
2018-11-14T23:50:22.476Z,27.45
2018-11-14T23:52:53.407Z,26.55
2018-11-14T23:55:22.776Z,26.62
2018-11-14T23:57:52.175Z,26.95
